This is the latest recevied weather packets stored in our database for station/object KC3WWU. If no packets are shown the sender has not sent any weather packets the latest 10 day(s).
| Time | Temp. | Humidity | Pressure | Rain* | Wind** | Luminosity | Snow |
|---|---|---|---|---|---|---|---|
| 1777956066 | 15° C | 75% | 1006.9 hPa | 0 mm | - | 0 W/m² | - |
| 1777955762 | 15° C | 73% | 1006.8 hPa | 0 mm | - | 0 W/m² | - |
| 1777955459 | 15° C | 76% | 1006.7 hPa | 0 mm | - | 0 W/m² | - |
| 1777955155 | 15° C | 76% | 1006.9 hPa | 0 mm | - | 0 W/m² | - |
| 1777954853 | 15° C | 73% | 1007 hPa | 0 mm | - | 0 W/m² | - |
| 1777954549 | 13.89° C | 77% | 1007 hPa | 0 mm | - | 0 W/m² | - |
| 1777954247 | 13.89° C | 79% | 1007 hPa | 0 mm | - | 0 W/m² | - |
| 1777953944 | 14.44° C | 77% | 1007 hPa | 0 mm | - | 0 W/m² | - |
| 1777953641 | 14.44° C | 75% | 1006.9 hPa | 0 mm | - | 0 W/m² | - |
| 1777953337 | 14.44° C | 78% | 1006.9 hPa | 0 mm | - | 0 W/m² | - |
| 1777953034 | 14.44° C | 77% | 1006.9 hPa | 0 mm | - | 0 W/m² | - |
| 1777952730 | 15° C | 74% | 1007 hPa | 0 mm | - | 0 W/m² | - |
| 1777952427 | 15° C | 71% | 1007 hPa | 0 mm | - | 0 W/m² | - |
| 1777952124 | 15° C | 73% | 1007.2 hPa | 0 mm | - | 0 W/m² | - |
| 1777951822 | 15° C | 72% | 1007.2 hPa | 0 mm | - | 0 W/m² | - |
| 1777951520 | 15.56° C | 68% | 1007.2 hPa | 0 mm | - | 0 W/m² | - |
| 1777951216 | 15.56° C | 69% | 1007.2 hPa | 0 mm | - | 0 W/m² | - |
| 1777950914 | 16.11° C | 68% | 1007.1 hPa | 0 mm | - | 0 W/m² | - |
| 1777950610 | 16.11° C | 69% | 1007.2 hPa | 0 mm | - | 0 W/m² | - |
| 1777950306 | 16.11° C | 68% | 1007 hPa | 0 mm | - | 0 W/m² | - |
| 1777950001 | 16.11° C | 66% | 1007.1 hPa | 0 mm | - | 0 W/m² | - |
| 1777949699 | 16.67° C | 66% | 1007 hPa | 0 mm | - | 0 W/m² | - |
| 1777949398 | 16.11° C | 66% | 1007 hPa | 0 mm | - | 0 W/m² | - |
| 1777949094 | 16.67° C | 65% | 1007.1 hPa | 0 mm | - | 0 W/m² | - |
| 1777948791 | 16.67° C | 64% | 1006.9 hPa | 0 mm | - | 0 W/m² | - |
* Rain latest hour (hover to see other rain measurements)
** Current wind speed in m/s (hover to see current wind gust speed)